createdAt,value
2018-05-14T10:39:07.195Z,42.55
2018-05-14T10:41:39.842Z,45.00
2018-05-14T10:44:12.503Z,42.30
2018-05-14T10:46:44.661Z,43.50
2018-05-14T10:49:16.471Z,44.63
2018-05-14T10:51:49.146Z,43.15
2018-05-14T10:54:21.818Z,43.60
2018-05-14T10:56:53.730Z,38.63
2018-05-14T10:59:25.616Z,40.72
2018-05-14T11:01:57.529Z,42.30
2018-05-14T11:04:30.427Z,42.70
2018-05-14T11:07:02.321Z,40.50
2018-05-14T11:09:34.456Z,42.50
2018-05-14T11:12:06.610Z,44.72
2018-05-14T11:14:38.506Z,43.92
2018-05-14T11:17:10.402Z,44.63
2018-05-14T11:19:42.597Z,48.80
2018-05-14T11:22:14.505Z,44.35
2018-05-14T11:24:46.402Z,47.60
2018-05-14T11:27:19.932Z,46.67
2018-05-14T11:29:52.085Z,44.75
2018-05-14T11:32:23.976Z,45.35
2018-05-14T11:34:56.112Z,42.50
2018-05-14T11:37:28.011Z,42.10
2018-05-14T11:39:59.891Z,42.80
2018-05-14T11:42:31.777Z,37.63
2018-05-14T11:45:04.422Z,37.03
2018-05-14T11:47:36.321Z,42.57
2018-05-14T11:50:08.958Z,37.23
2018-05-14T11:52:40.861Z,39.67
2018-05-14T11:55:13.755Z,39.43
2018-05-14T11:57:45.656Z,37.93
2018-05-14T12:00:17.547Z,41.53
2018-05-14T12:02:49.491Z,37.53
2018-05-14T12:05:21.332Z,39.93
2018-05-14T12:07:53.227Z,33.90
2018-05-14T12:10:25.098Z,35.23
2018-05-14T12:12:57.816Z,34.17
2018-05-14T12:15:29.968Z,34.17
2018-05-14T12:18:01.935Z,33.50
2018-05-14T12:20:34.090Z,33.83
2018-05-14T12:23:05.988Z,35.53
2018-05-14T12:25:37.926Z,28.00
2018-05-14T12:28:09.757Z,33.70
2018-05-14T12:30:41.647Z,25.12
2018-05-14T12:33:13.539Z,31.20
2018-05-14T12:35:45.418Z,30.80
2018-05-14T12:38:17.318Z,26.93
2018-05-14T12:40:49.299Z,27.67
2018-05-14T12:43:21.216Z,26.58
2018-05-14T12:45:54.119Z,30.20
2018-05-14T12:48:26.055Z,23.97
2018-05-14T12:50:57.938Z,25.80
2018-05-14T12:53:29.832Z,24.05
2018-05-14T12:56:02.075Z,27.67
2018-05-14T12:58:33.981Z,19.45
2018-05-14T13:01:05.871Z,18.40
2018-05-14T13:03:38.530Z,17.83
2018-05-14T13:06:10.410Z,19.02
2018-05-14T13:08:43.073Z,17.45
2018-05-14T13:11:14.966Z,16.27
2018-05-14T13:13:46.863Z,15.77
2018-05-14T13:16:19.000Z,15.55
2018-05-14T13:18:51.162Z,16.25
2018-05-14T13:21:23.062Z,13.63
2018-05-14T13:23:55.727Z,16.25
2018-05-14T13:26:27.608Z,13.45
2018-05-14T13:28:59.498Z,12.10
2018-05-14T13:31:32.147Z,11.03
2018-05-14T13:34:04.038Z,18.42
2018-05-14T13:36:36.689Z,15.32
2018-05-14T13:39:08.579Z,16.92
2018-05-14T13:41:41.215Z,15.73
2018-05-14T13:44:13.205Z,12.60
2018-05-14T13:46:45.774Z,11.70
2018-05-14T13:49:17.666Z,11.77
2018-05-14T13:51:50.312Z,13.27
2018-05-14T13:54:22.217Z,9.93
2018-05-14T13:56:54.138Z,13.25
2018-05-14T13:59:26.036Z,13.98
2018-05-14T14:01:58.205Z,12.63
2018-05-14T14:04:30.102Z,14.57
2018-05-14T14:07:01.972Z,9.50
2018-05-14T14:09:33.872Z,9.57
2018-05-14T14:12:06.513Z,11.43
2018-05-14T14:14:38.421Z,8.50
2018-05-14T14:17:11.060Z,9.65
2018-05-14T14:19:42.959Z,7.90
2018-05-14T14:22:14.870Z,7.95
2018-05-14T14:24:46.774Z,6.55
2018-05-14T14:27:18.662Z,10.07
2018-05-14T14:29:50.678Z,9.27
2018-05-14T14:32:22.467Z,9.48
2018-05-14T14:34:54.407Z,11.68
2018-05-14T14:37:27.086Z,6.95
2018-05-14T14:39:59.739Z,7.00
2018-05-14T14:42:31.654Z,10.52
2018-05-14T14:45:03.550Z,9.07
2018-05-14T14:47:35.433Z,9.18
2018-05-14T14:50:07.335Z,7.65
2018-05-14T14:52:39.482Z,5.82
2018-05-14T14:55:12.214Z,6.35
2018-05-14T14:57:44.239Z,8.07
2018-05-14T15:00:16.134Z,8.68
2018-05-14T15:02:48.018Z,8.80
2018-05-14T15:05:19.912Z,6.90
2018-05-14T15:07:51.789Z,11.27
2018-05-14T15:10:23.679Z,8.73
2018-05-14T15:12:55.556Z,6.72
2018-05-14T15:15:27.443Z,8.55
2018-05-14T15:18:00.090Z,8.52
2018-05-14T15:20:32.210Z,5.40
2018-05-14T15:23:04.094Z,6.57
2018-05-14T15:25:36.746Z,9.05
2018-05-14T15:28:08.899Z,8.07
2018-05-14T15:30:40.791Z,6.75
2018-05-14T15:33:12.744Z,6.20
2018-05-14T15:35:44.886Z,6.37
2018-05-14T15:38:16.767Z,5.47
2018-05-14T15:40:48.663Z,9.15
2018-05-14T15:43:20.889Z,5.57
2018-05-14T15:45:53.943Z,7.68
2018-05-14T15:48:26.578Z,8.88
2018-05-14T15:50:58.710Z,7.28
2018-05-14T15:53:30.602Z,5.78
2018-05-14T15:56:02.486Z,8.98
2018-05-14T15:58:34.365Z,8.40
2018-05-14T16:01:06.254Z,8.30
2018-05-14T16:03:38.134Z,7.93
2018-05-14T16:06:10.032Z,7.68
2018-05-14T16:08:41.910Z,6.20
2018-05-14T16:11:14.565Z,6.87
2018-05-14T16:13:46.449Z,8.48
2018-05-14T16:16:19.357Z,6.82
2018-05-14T16:18:51.328Z,11.75
2018-05-14T16:21:23.226Z,6.05
2018-05-14T16:23:55.110Z,4.68
2018-05-14T16:26:26.999Z,6.62
2018-05-14T16:28:58.871Z,8.18
2018-05-14T16:31:30.758Z,6.87
2018-05-14T16:34:02.651Z,7.62
2018-05-14T16:36:34.839Z,9.52
2018-05-14T16:39:06.718Z,5.22
2018-05-14T16:41:38.614Z,5.12
2018-05-14T16:44:10.494Z,6.25
2018-05-14T16:46:42.381Z,7.47
2018-05-14T16:49:14.269Z,6.45
2018-05-14T16:51:46.174Z,7.68
2018-05-14T16:54:18.046Z,8.68
2018-05-14T16:56:51.050Z,10.63
2018-05-14T16:59:22.938Z,9.73
2018-05-14T17:01:54.830Z,5.75
2018-05-14T17:04:26.711Z,6.62
2018-05-14T17:06:58.603Z,5.65
2018-05-14T17:09:31.382Z,5.45
2018-05-14T17:12:03.270Z,10.02
2018-05-14T17:14:35.151Z,5.82
2018-05-14T17:17:07.048Z,7.97
2018-05-14T17:19:39.698Z,6.30
2018-05-14T17:22:11.901Z,10.40
2018-05-14T17:24:43.798Z,8.18
2018-05-14T17:27:16.742Z,7.25
2018-05-14T17:29:48.915Z,6.97
2018-05-14T17:32:20.798Z,5.87
2018-05-14T17:34:52.715Z,6.55
2018-05-14T17:37:25.373Z,6.90
2018-05-14T17:39:57.258Z,4.40
2018-05-14T17:42:29.911Z,7.03
2018-05-14T17:45:01.816Z,7.28
2018-05-14T17:47:33.698Z,8.73
2018-05-14T17:50:05.837Z,6.15
2018-05-14T17:52:38.531Z,6.53
2018-05-14T17:55:10.414Z,6.43
2018-05-14T17:57:42.306Z,7.68
2018-05-14T18:00:14.202Z,6.75
2018-05-14T18:02:46.887Z,7.07
2018-05-14T18:05:18.884Z,4.65
2018-05-14T18:07:52.223Z,7.50
2018-05-14T18:10:24.912Z,4.20
2018-05-14T18:12:56.774Z,6.95
2018-05-14T18:15:28.661Z,7.82
2018-05-14T18:18:00.626Z,5.72
2018-05-14T18:20:32.435Z,7.62
2018-05-14T18:23:05.099Z,11.23
2018-05-14T18:25:37.224Z,6.55
2018-05-14T18:28:09.362Z,6.12
2018-05-14T18:30:41.258Z,8.10
2018-05-14T18:33:13.158Z,6.93
2018-05-14T18:35:45.176Z,5.07
2018-05-14T18:38:17.099Z,6.60
2018-05-14T18:40:49.764Z,5.25
2018-05-14T18:43:21.669Z,6.65
2018-05-14T18:45:53.819Z,6.85
2018-05-14T18:48:25.719Z,12.07
2018-05-14T18:50:57.627Z,4.87
2018-05-14T18:53:30.311Z,14.02
2018-05-14T18:56:02.954Z,4.55
2018-05-14T18:58:34.854Z,7.93
2018-05-14T19:01:06.730Z,7.62
2018-05-14T19:03:38.615Z,7.50
2018-05-14T19:06:10.503Z,7.68
2018-05-14T19:08:42.392Z,8.57
2018-05-14T19:11:14.262Z,5.40
2018-05-14T19:13:46.267Z,8.95
2018-05-14T19:16:18.166Z,4.90
2018-05-14T19:18:50.884Z,9.20
2018-05-14T19:21:22.855Z,9.68
2018-05-14T19:23:54.765Z,7.62
2018-05-14T19:26:27.537Z,8.98
2018-05-14T19:28:59.501Z,7.95
2018-05-14T19:31:31.383Z,9.57
2018-05-14T19:34:03.277Z,7.82
2018-05-14T19:36:35.178Z,6.80
2018-05-14T19:39:07.374Z,5.87
2018-05-14T19:41:39.333Z,6.00
2018-05-14T19:44:11.171Z,6.43
2018-05-14T19:46:43.046Z,5.87
2018-05-14T19:49:15.718Z,9.93
2018-05-14T19:51:48.390Z,9.80
2018-05-14T19:54:20.279Z,6.83
2018-05-14T19:56:52.158Z,7.73
2018-05-14T19:59:24.305Z,8.10
2018-05-14T20:01:56.182Z,7.37
2018-05-14T20:04:28.075Z,7.03
2018-05-14T20:07:00.182Z,7.53
2018-05-14T20:09:32.070Z,6.70
2018-05-14T20:12:04.218Z,10.30
2018-05-14T20:14:36.109Z,12.63
2018-05-14T20:17:07.970Z,7.77
2018-05-14T20:19:39.913Z,7.00
2018-05-14T20:22:12.062Z,8.50
2018-05-14T20:24:43.954Z,7.33
2018-05-14T20:27:15.843Z,9.10
2018-05-14T20:29:47.739Z,9.07
2018-05-14T20:32:19.621Z,4.80
2018-05-14T20:34:51.507Z,4.28
2018-05-14T20:37:25.166Z,9.13
2018-05-14T20:39:56.982Z,13.83
